Bishop International Airport
KFNT : now visible

Airfield :











YOU CAN JOIN US ON...

 
LOGIN :

Register | Disclaimer

   EN    FR    IT 

 









Legend :    VFR   Marginal VFR   IFR   Intensive IFR   Very Intensive IFR
Visi :
Ceiling :
>= 8 km
>= 3000ft
5 to 8 km
1000 to 3000 ft
1500m to 5 km
500 to 1000 ft
800 to 1500m
200 to 500 ft
< 800m
< 200 ft
Symbols :   Thunderstorms  Fog  Heavy snow  Heavy precipitations  Wind > 20 kt






- Airport Elevation : 782 ft
- IATA code : FNT


KFNT - Bishop International

CURRENT METAR :
  • 190900Z AUTO 25007KT 8SM OVC014 M01/M04 A2997 RMK AO2 T10111039

EXPIRED METARs :
  • 190853Z AUTO 25010KT 8SM OVC015 M01/M04 A2997 RMK AO2 SLP158 60001 I1000 I3000 T10111039 51006
  • 190837Z AUTO 25007KT 7SM OVC014 M01/M04 A2997 RMK AO2 I1000 T10111039
  • 190827Z AUTO 25006KT 7SM OVC015 M01/M04 A2997 RMK AO2 I1000 T10111039
  • 190753Z AUTO 24008KT 6SM HZ OVC013 M01/M04 A2996 RMK AO2 SNE27 SLP155 P0001 T10111039
  • 190716Z AUTO 23007KT 3SM -SN OVC013 M01/M04 A2995 RMK AO2 P0000 T10111039
  • 190702Z AUTO 23007KT 1 3/4SM -SN OVC013 M01/M04 A2995 RMK AO2 P0000 T10111039
  • 190653Z AUTO 23005KT 3SM -SN OVC014 M01/M04 A2995 RMK AO2 SNB33 SLP152 P0000 T10111039
  • 190622Z AUTO 24008KT 5SM HZ BKN014 OVC021 M01/M04 A2995 RMK AO2 T10111039

TAF KFNT
Valid from the 19 at 06:00 until the 20 at 06:00 UTC


190520Z 1906/2006 24008KT P6SM BKN022 OVC025
TEMPO 1906/1910 OVC016
FM191600 27014G22KT P6SM SCT024 OVC040
FM200200 29008KT 5SM -SHSN BKN022 OVC045
KZOB FIR / North America



MET'MAP, your aeronautical weather chart ! - Copyright ORBIFLY December 2007 - Disclaimer

ORBIFLY MET'MAP TEAM :

Programming & Development : Alexandra Zaïnal
Concept & original design : Baudouin d'Aumeries
Assistance for programming : Marc-Olivier Méhu
Technical & hardware support : Manuel Goepfert

Contact : metmap@orbifly.com




SOURCES & CREDITS :

   NOAA       Earth
Advisory